Jackpot Winner Domino

Jackpot hanya dapat di beli di awal sebelum periode tersebut berjalan dan jika berhasil maka anda dapat melihat di sisi kiri bawah atau kiri atas akan terdapat notifikasi bahwa jackpot anda berhasil di beli.

Jika anda membeli jackpot di tengah permainan maka pembelian jackpot akan berlaku untuk periode selanjutnya.

Ikutilah global jackpot yang tersedia di system kami, dengan system jackpot terbaru dan pertama di indonesia, anda dapat membeli jackpot dengan harga 100 rupiah saja dan menangkan hadiahnya hingga puluhan juta rupiah.

Jackpot bukanlah suatu keharusan untuk dibeli, namun kami memberikan suatu fitur tambahan untuk member tercinta dari www.npceme.com.

Terdapat tiga pilihan harga jackpot yang bisa anda beli yaitu :100,500 dan 1000 rupiah.

Hadiah dari Multi jackpot system www.npceme.com

  1. Murni Kecil x 50 harga jackpot yang anda beli.
      (contoH:anda membeli 1000 maka:1000 X 50 = 50.000)
  2. Murni Besar x 50 harga jackpot yang anda beli
      (contoH:anda membeli 1000 maka:1000 X 50 = 50.000)
  3. BALAK x 100 harga jackpot yang anda beli
      (contoH:anda membeli 1000 maka:1000 X 100 = 100.000)
  4. ENAM DEWA x 6666 harga jackpot yang anda beli
      (contoH:anda membeli 1000 maka:1000 X 6666 = 6.666.000)

Demikian adalah penjelasan dari Multi Jackpot www.npceme.com terima kasih dan selamat bermain salam hoki dari kami


Note: Untuk mendapatkan jackpot di satu periode, pemain harus menyelesaikan permainan di periode tersebut, minimal 2 pemain. Jika semua pemain 'fold' jackpot tidak akan diturunkan.


Jackpot Winner

TOP ENAM DEWA
No. Tanggal Nama Price Win
1 19/03 06:25 ANDRE0 murni enam 3,333,000
2 19/03 06:15 BIMAPANJI murni enam 666,600
3 19/03 04:03 YANHOKI303 murni enam 6,666,000
4 19/03 03:29 SPT32 murni enam 6,666,000
5 19/03 03:24 YAHER151 murni enam 6,666,000
TOP BALAK
No. Tanggal Nama Price Win
1 19/03 13:55 ZOLO123 balak 100,000
2 19/03 13:54 ZERA16 balak 100,000
3 19/03 13:47 ASOI98 balak 100,000
4 19/03 13:47 BEHAN123 balak 50,000
5 19/03 13:45 WAWAN66 balak 50,000
LATEST JACKPOT
No. Tanggal Nama Price Win
1 19/03 13:58 C9E809C9 murni kecil 5,000
2 19/03 13:57 PAKET98 murni besar 50,000
3 19/03 13:57 SUKAJUDI20 lucky99 25,000
4 19/03 13:57 FAHRIAN987 murni kecil 50,000
5 19/03 13:56 DUKUHMANIS murni besar 25,000
6 19/03 13:55 ZOLO123 balak 100,000
7 19/03 13:55 FERGIE80 murni kecil 25,000
8 19/03 13:55 STRONGBRUT murni kecil 50,000
9 19/03 13:54 ZERA16 balak 100,000
10 19/03 13:54 KASBUN78 murni besar 25,000
11 19/03 13:54 GAHAR99 murni besar 25,000
12 19/03 13:54 GALAXI29 murni kecil 50,000
13 19/03 13:54 GOBANG28 murni kecil 50,000
14 19/03 13:53 041184 murni kecil 5,000
15 19/03 13:53 BUS3RR00 murni besar 25,000
16 19/03 13:53 C17984 murni besar 25,000
17 19/03 13:52 KOZENK murni besar 50,000
18 19/03 13:51 WAKBUSTOMI murni kecil 25,000
19 19/03 13:51 FERYAGUERO murni kecil 50,000
20 19/03 13:50 PACIK44 murni besar 50,000
21 19/03 13:49 JIBRIL1102 murni kecil 25,000
22 19/03 13:49 LB888628 murni besar 25,000
23 19/03 13:49 TONK98 murni besar 5,000
24 19/03 13:47 ASOI98 balak 100,000
25 19/03 13:47 BEHAN123 balak 50,000
26 19/03 13:46 TONK98 murni besar 25,000
27 19/03 13:45 D18RY518 lucky99 10,000
28 19/03 13:45 WAWAN66 balak 50,000
29 19/03 13:45 BAGAL26 murni besar 50,000
30 19/03 13:43 BD65DD64 murni kecil 25,000
31 19/03 13:43 GAPLEXXX murni kecil 50,000
32 19/03 13:42 ASOI98 murni kecil 50,000
33 19/03 13:42 GALAXI29 balak 100,000
34 19/03 13:42 LAPMEJA murni kecil 50,000
35 19/03 13:41 ROYALLFLUS murni besar 25,000
36 19/03 13:41 LB888628 murni besar 25,000
37 19/03 13:40 KCEL3 murni kecil 25,000
38 19/03 13:40 GOD666 murni besar 50,000
39 19/03 13:40 BOSKU6666 murni besar 5,000
40 19/03 13:39 IMAN18 murni kecil 25,000
41 19/03 13:37 IHUL87 murni besar 25,000
42 19/03 13:37 HATTA88 murni kecil 5,000
43 19/03 13:37 TEMPEPIKUN murni kecil 25,000
44 19/03 13:36 S4IN murni kecil 50,000
45 19/03 13:36 WINAQ murni besar 25,000
46 19/03 13:35 RATUASYIFA balak 50,000
47 19/03 13:35 BD13 balak 100,000
48 19/03 13:35 PKTIAM1197 murni besar 50,000
49 19/03 13:34 IHUL87 balak 50,000
50 19/03 13:34 KOZENK balak 100,000